createdAt,value
2018-05-01T02:00:17.590Z,10.56
2018-05-01T02:00:21.933Z,10.57
2018-05-01T02:00:26.033Z,10.57
2018-05-01T02:00:30.246Z,10.57
2018-05-01T02:00:34.354Z,10.57
2018-05-01T02:00:38.463Z,10.57
2018-05-01T02:00:42.667Z,10.57
2018-05-01T02:00:46.779Z,10.55
2018-05-01T02:00:50.990Z,10.56
2018-05-01T02:00:55.193Z,10.57
2018-05-01T02:00:59.516Z,10.58
2018-05-01T02:01:03.621Z,10.57
2018-05-01T02:01:07.511Z,10.57
2018-05-01T02:01:11.830Z,10.57
2018-05-01T02:01:16.143Z,10.58
2018-05-01T02:01:20.352Z,10.57
2018-05-01T02:01:24.564Z,10.58
2018-05-01T02:01:28.665Z,10.57
2018-05-01T02:01:32.874Z,10.56
2018-05-01T02:01:37.205Z,10.57
2018-05-01T02:01:41.421Z,10.58
2018-05-01T02:01:45.636Z,10.58
2018-05-01T02:01:49.755Z,10.57
2018-05-01T02:01:53.966Z,10.58
2018-05-01T02:01:58.167Z,10.57
2018-05-01T02:02:02.265Z,10.57
2018-05-01T02:02:06.263Z,10.57
2018-05-01T02:02:10.577Z,10.56
2018-05-01T02:02:14.895Z,10.57
2018-05-01T02:02:19.211Z,10.58
2018-05-01T02:02:23.426Z,10.57
2018-05-01T02:02:27.744Z,10.58
2018-05-01T02:02:32.061Z,10.58
2018-05-01T02:02:36.272Z,10.58
2018-05-01T02:02:40.370Z,10.57
2018-05-01T02:02:44.477Z,10.57
2018-05-01T02:02:48.580Z,10.57
2018-05-01T02:02:52.901Z,10.57
2018-05-01T02:02:57.113Z,10.58
2018-05-01T02:03:01.211Z,10.57
2018-05-01T02:03:05.209Z,10.58
2018-05-01T02:03:09.531Z,10.58
2018-05-01T02:03:13.843Z,10.57
2018-05-01T02:03:18.048Z,10.58
2018-05-01T02:03:22.261Z,10.58
2018-05-01T02:03:26.369Z,10.58
2018-05-01T02:03:30.691Z,10.59
2018-05-01T02:03:34.982Z,10.58
2018-05-01T02:03:39.314Z,10.58
2018-05-01T02:03:43.525Z,10.58
2018-05-01T02:03:47.645Z,10.58
2018-05-01T02:03:51.853Z,10.59
2018-05-01T02:03:56.163Z,10.58
2018-05-01T02:04:00.370Z,10.58
2018-05-01T02:04:04.582Z,10.59
2018-05-01T02:04:08.911Z,10.59
2018-05-01T02:04:13.222Z,10.59
2018-05-01T02:04:17.437Z,10.59
2018-05-01T02:04:21.752Z,10.59
2018-05-01T02:04:26.067Z,10.59
2018-05-01T02:04:30.172Z,10.59
2018-05-01T02:04:34.392Z,10.59
2018-05-01T02:04:38.492Z,10.59
2018-05-01T02:04:42.703Z,10.59
2018-05-01T02:04:47.022Z,10.59
2018-05-01T02:04:51.347Z,10.59
2018-05-01T02:04:55.566Z,10.59
2018-05-01T02:04:59.774Z,10.59
2018-05-01T02:05:03.878Z,10.59
2018-05-01T02:05:08.097Z,10.6
2018-05-01T02:05:12.303Z,10.59
2018-05-01T02:05:16.509Z,10.59
2018-05-01T02:05:20.833Z,10.59
2018-05-01T02:05:24.826Z,10.59
2018-05-01T02:05:29.041Z,10.59
2018-05-01T02:05:33.144Z,10.59
2018-05-01T02:05:37.354Z,10.59
2018-05-01T02:05:41.666Z,10.59
2018-05-01T02:05:45.884Z,10.6
2018-05-01T02:05:50.089Z,10.6
2018-05-01T02:05:54.190Z,10.59
2018-05-01T02:05:58.408Z,10.6
2018-05-01T02:06:02.727Z,10.59
2018-05-01T02:06:07.059Z,10.59
2018-05-01T02:06:11.270Z,10.6
2018-05-01T02:06:15.371Z,10.6
2018-05-01T02:06:19.689Z,10.6
2018-05-01T02:06:23.793Z,10.6
2018-05-01T02:06:27.894Z,10.6
2018-05-01T02:06:32.215Z,10.6
2018-05-01T02:06:36.449Z,10.61
2018-05-01T02:06:40.766Z,10.6
2018-05-01T02:06:44.986Z,10.6
2018-05-01T02:06:49.316Z,10.61
2018-05-01T02:06:53.546Z,10.61
2018-05-01T02:06:57.759Z,10.6
2018-05-01T02:07:01.981Z,10.61
2018-05-01T02:07:06.088Z,10.61
2018-05-01T02:07:10.200Z,10.61
2018-05-01T02:07:14.295Z,10.6
2018-05-01T02:07:18.399Z,10.61
2018-05-01T02:07:22.393Z,10.6
2018-05-01T02:07:26.603Z,10.6
2018-05-01T02:07:30.807Z,10.61
2018-05-01T02:07:35.022Z,10.61
2018-05-01T02:07:39.236Z,10.6
2018-05-01T02:07:43.442Z,10.61
2018-05-01T02:07:47.734Z,10.61
2018-05-01T02:07:51.943Z,10.62
2018-05-01T02:07:56.257Z,10.62
2018-05-01T02:08:00.474Z,10.61
2018-05-01T02:08:04.732Z,10.61
2018-05-01T02:08:08.834Z,10.61
2018-05-01T02:08:13.043Z,10.62
2018-05-01T02:08:17.358Z,10.61
2018-05-01T02:08:21.569Z,10.61
2018-05-01T02:08:25.883Z,10.61
2018-05-01T02:08:30.091Z,10.61
2018-05-01T02:08:34.308Z,10.62
2018-05-01T02:08:38.517Z,10.61
2018-05-01T02:08:42.847Z,10.62
2018-05-01T02:08:47.060Z,10.61
2018-05-01T02:08:51.374Z,10.61
2018-05-01T02:08:55.696Z,10.62
2018-05-01T02:08:59.901Z,10.61
2018-05-01T02:09:04.112Z,10.61
2018-05-01T02:09:08.317Z,10.61
2018-05-01T02:09:12.634Z,10.62
2018-05-01T02:09:16.953Z,10.61
2018-05-01T02:09:21.051Z,10.62
2018-05-01T02:09:25.167Z,10.62
2018-05-01T02:09:29.265Z,10.62
2018-05-01T02:09:33.471Z,10.61
2018-05-01T02:09:37.587Z,10.62
2018-05-01T02:09:41.915Z,10.62
2018-05-01T02:09:46.115Z,10.63
2018-05-01T02:09:50.444Z,10.61
2018-05-01T02:09:54.834Z,10.62
2018-05-01T02:09:59.042Z,10.62
2018-05-01T02:10:03.247Z,10.62
2018-05-01T02:10:07.360Z,10.62
2018-05-01T02:10:11.574Z,10.61
2018-05-01T02:10:15.790Z,10.62
2018-05-01T02:10:20.065Z,10.62
2018-05-01T02:10:24.164Z,10.62
2018-05-01T02:10:28.368Z,10.63
2018-05-01T02:10:32.573Z,10.62
2018-05-01T02:10:36.783Z,10.62
2018-05-01T02:10:40.990Z,10.62
2018-05-01T02:10:45.310Z,10.61
2018-05-01T02:10:49.627Z,10.62
2018-05-01T02:10:53.938Z,10.62
2018-05-01T02:10:58.253Z,10.63
2018-05-01T02:11:02.575Z,10.62
2018-05-01T02:11:06.568Z,10.63
2018-05-01T02:11:10.901Z,10.63
2018-05-01T02:11:15.114Z,10.62
2018-05-01T02:11:19.331Z,10.62
2018-05-01T02:11:23.541Z,10.62
2018-05-01T02:11:27.748Z,10.63
2018-05-01T02:11:32.073Z,10.63
2018-05-01T02:11:36.284Z,10.63
2018-05-01T02:11:40.279Z,10.62
2018-05-01T02:11:44.494Z,10.63
2018-05-01T02:11:48.599Z,10.63
2018-05-01T02:11:52.915Z,10.63
2018-05-01T02:11:57.235Z,10.62
2018-05-01T02:12:01.449Z,10.63
2018-05-01T02:12:05.486Z,10.63
2018-05-01T02:12:09.697Z,10.63
2018-05-01T02:12:13.821Z,10.63
2018-05-01T02:12:18.138Z,10.63
2018-05-01T02:12:22.432Z,10.62
2018-05-01T02:12:26.540Z,10.63
2018-05-01T02:12:30.755Z,10.64
2018-05-01T02:12:35.070Z,10.64
2018-05-01T02:12:39.173Z,10.63
2018-05-01T02:12:43.275Z,10.63
2018-05-01T02:12:47.488Z,10.63
2018-05-01T02:12:51.479Z,10.63
2018-05-01T02:12:55.587Z,10.63
2018-05-01T02:12:59.898Z,10.63
2018-05-01T02:13:04.247Z,10.63
2018-05-01T02:13:08.657Z,10.63
2018-05-01T02:13:12.980Z,10.63
2018-05-01T02:13:17.190Z,10.63
2018-05-01T02:13:21.473Z,10.63
2018-05-01T02:13:25.792Z,10.63
2018-05-01T02:13:30.111Z,10.63
2018-05-01T02:13:34.317Z,10.64
2018-05-01T02:13:38.657Z,10.63
2018-05-01T02:13:42.863Z,10.64
2018-05-01T02:13:46.859Z,10.63
2018-05-01T02:13:51.179Z,10.64
2018-05-01T02:13:55.393Z,10.64
2018-05-01T02:13:59.610Z,10.63
2018-05-01T02:14:03.723Z,10.64
2018-05-01T02:14:07.966Z,10.64
2018-05-01T02:14:12.370Z,10.63
2018-05-01T02:14:16.577Z,10.64
2018-05-01T02:14:20.895Z,10.64
2018-05-01T02:14:24.890Z,10.63
2018-05-01T02:14:28.993Z,10.63
2018-05-01T02:14:32.987Z,10.63
2018-05-01T02:14:37.194Z,10.64
2018-05-01T02:14:41.518Z,10.64
2018-05-01T02:14:45.630Z,10.64
2018-05-01T02:14:49.738Z,10.63
2018-05-01T02:14:53.950Z,10.64
2018-05-01T02:14:58.159Z,10.64
2018-05-01T02:15:02.492Z,10.64
2018-05-01T02:15:06.385Z,10.64
2018-05-01T02:15:10.598Z,10.63
2018-05-01T02:15:14.706Z,10.64
2018-05-01T02:15:18.914Z,10.65
2018-05-01T02:15:23.228Z,10.65
2018-05-01T02:15:27.438Z,10.65
2018-05-01T02:15:31.717Z,10.64
2018-05-01T02:15:35.924Z,10.65
2018-05-01T02:15:40.028Z,10.65
2018-05-01T02:15:44.244Z,10.64
2018-05-01T02:15:48.360Z,10.64
2018-05-01T02:15:52.574Z,10.65
2018-05-01T02:15:56.782Z,10.64
2018-05-01T02:16:00.988Z,10.65
2018-05-01T02:16:05.095Z,10.65
2018-05-01T02:16:09.297Z,10.65
2018-05-01T02:16:13.612Z,10.65
2018-05-01T02:16:17.929Z,10.64
2018-05-01T02:16:22.132Z,10.64
2018-05-01T02:16:26.342Z,10.65
2018-05-01T02:16:30.662Z,10.65
2018-05-01T02:16:34.844Z,10.65
2018-05-01T02:16:39.165Z,10.65
2018-05-01T02:16:43.267Z,10.65
2018-05-01T02:16:47.474Z,10.65
2018-05-01T02:16:51.681Z,10.65
2018-05-01T02:16:55.894Z,10.65
2018-05-01T02:17:00.224Z,10.65
2018-05-01T02:17:04.226Z,10.65
2018-05-01T02:17:08.547Z,10.65
2018-05-01T02:17:12.752Z,10.65
2018-05-01T02:17:16.748Z,10.65
2018-05-01T02:17:21.071Z,10.65
2018-05-01T02:17:25.278Z,10.64
2018-05-01T02:17:29.272Z,10.65
2018-05-01T02:17:33.476Z,10.65
2018-05-01T02:17:37.793Z,10.65
2018-05-01T02:17:42.108Z,10.65
2018-05-01T02:17:46.316Z,10.65
2018-05-01T02:17:50.640Z,10.66
2018-05-01T02:17:54.847Z,10.64
2018-05-01T02:17:59.055Z,10.65
2018-05-01T02:18:03.273Z,10.65
2018-05-01T02:18:07.487Z,10.65
2018-05-01T02:18:11.701Z,10.65
2018-05-01T02:18:15.805Z,10.65
2018-05-01T02:18:20.124Z,10.65
2018-05-01T02:18:24.337Z,10.64
2018-05-01T02:18:28.649Z,10.64
2018-05-01T02:18:32.760Z,10.65
2018-05-01T02:18:36.966Z,10.65
2018-05-01T02:18:41.070Z,10.65
2018-05-01T02:18:45.165Z,10.65
2018-05-01T02:18:49.169Z,10.65
2018-05-01T02:18:53.269Z,10.65
2018-05-01T02:18:57.581Z,10.65
2018-05-01T02:19:01.897Z,10.64
2018-05-01T02:19:06.046Z,10.65
2018-05-01T02:19:10.258Z,10.65
2018-05-01T02:19:14.474Z,10.64
2018-05-01T02:19:18.785Z,10.65
2018-05-01T02:19:22.993Z,10.65
2018-05-01T02:19:27.092Z,10.64
2018-05-01T02:19:31.410Z,10.65
2018-05-01T02:19:35.626Z,10.65
2018-05-01T02:19:39.950Z,10.64
2018-05-01T02:19:44.285Z,10.65
2018-05-01T02:19:48.605Z,10.65
2018-05-01T02:19:52.790Z,10.65
2018-05-01T02:19:56.899Z,10.65
2018-05-01T02:20:01.215Z,10.64
2018-05-01T02:20:05.327Z,10.65
2018-05-01T02:20:09.644Z,10.64
2018-05-01T02:20:13.859Z,10.65
2018-05-01T02:20:18.071Z,10.65
2018-05-01T02:20:22.275Z,10.65
2018-05-01T02:20:26.500Z,10.65
2018-05-01T02:20:30.818Z,10.65
2018-05-01T02:20:34.925Z,10.65
2018-05-01T02:20:38.933Z,10.65
2018-05-01T02:20:43.256Z,10.65
2018-05-01T02:20:47.570Z,10.66
2018-05-01T02:20:51.668Z,10.64
2018-05-01T02:20:55.771Z,10.65
2018-05-01T02:21:00.090Z,10.65
2018-05-01T02:21:04.349Z,10.65
2018-05-01T02:21:08.398Z,10.65
2018-05-01T02:21:12.608Z,10.65
2018-05-01T02:21:16.709Z,10.65
2018-05-01T02:21:20.917Z,10.65
2018-05-01T02:21:25.130Z,10.64
2018-05-01T02:21:29.442Z,10.65
2018-05-01T02:21:33.548Z,10.66
2018-05-01T02:21:37.872Z,10.66
2018-05-01T02:21:42.077Z,10.65
2018-05-01T02:21:46.192Z,10.65
2018-05-01T02:21:50.404Z,10.65
2018-05-01T02:21:54.727Z,10.65
2018-05-01T02:21:59.047Z,10.64
2018-05-01T02:22:03.362Z,10.65
2018-05-01T02:22:07.358Z,10.65
2018-05-01T02:22:11.475Z,10.65
2018-05-01T02:22:15.788Z,10.65
2018-05-01T02:22:20.023Z,10.65
2018-05-01T02:22:24.229Z,10.65
2018-05-01T02:22:28.553Z,10.64
2018-05-01T02:22:32.870Z,10.65
2018-05-01T02:22:37.081Z,10.65
2018-05-01T02:22:41.401Z,10.64
2018-05-01T02:22:45.623Z,10.65
2018-05-01T02:22:49.839Z,10.65
2018-05-01T02:22:54.155Z,10.65
2018-05-01T02:22:58.361Z,10.65
2018-05-01T02:23:02.801Z,10.65
2018-05-01T02:23:06.908Z,10.65
2018-05-01T02:23:11.120Z,10.65
2018-05-01T02:23:15.330Z,10.66
2018-05-01T02:23:19.536Z,10.66
2018-05-01T02:23:23.867Z,10.66
2018-05-01T02:23:28.192Z,10.65
2018-05-01T02:23:32.293Z,10.65
2018-05-01T02:23:36.503Z,10.65
2018-05-01T02:23:40.726Z,10.66
2018-05-01T02:23:44.934Z,10.65
2018-05-01T02:23:49.143Z,10.66
2018-05-01T02:23:53.464Z,10.65
2018-05-01T02:23:57.677Z,10.65
2018-05-01T02:24:01.890Z,10.66
2018-05-01T02:24:05.897Z,10.66
2018-05-01T02:24:09.899Z,10.65
2018-05-01T02:24:14.111Z,10.66
2018-05-01T02:24:18.317Z,10.65
2018-05-01T02:24:22.527Z,10.65
2018-05-01T02:24:26.776Z,10.65
2018-05-01T02:24:30.890Z,10.66
2018-05-01T02:24:35.201Z,10.65
2018-05-01T02:24:39.532Z,10.65
2018-05-01T02:24:43.748Z,10.66
2018-05-01T02:24:47.850Z,10.66
2018-05-01T02:24:52.073Z,10.66
2018-05-01T02:24:56.401Z,10.66
2018-05-01T02:25:00.613Z,10.66
2018-05-01T02:25:04.723Z,10.66
2018-05-01T02:25:08.932Z,10.66
2018-05-01T02:25:13.041Z,10.66
2018-05-01T02:25:17.363Z,10.66
2018-05-01T02:25:21.573Z,10.65
2018-05-01T02:25:25.799Z,10.66
2018-05-01T02:25:30.115Z,10.66
2018-05-01T02:25:34.330Z,10.66
2018-05-01T02:25:38.541Z,10.66
2018-05-01T02:25:42.858Z,10.66
2018-05-01T02:25:46.867Z,10.66
2018-05-01T02:25:51.074Z,10.66
2018-05-01T02:25:55.282Z,10.66
2018-05-01T02:25:59.395Z,10.66
2018-05-01T02:26:03.497Z,10.67
2018-05-01T02:26:07.706Z,10.66
2018-05-01T02:26:11.928Z,10.66
2018-05-01T02:26:16.147Z,10.66
2018-05-01T02:26:20.468Z,10.66
2018-05-01T02:26:24.875Z,10.67
2018-05-01T02:26:28.974Z,10.66
2018-05-01T02:26:33.282Z,10.66
2018-05-01T02:26:37.499Z,10.66
2018-05-01T02:26:41.710Z,10.66
2018-05-01T02:26:45.917Z,10.66
2018-05-01T02:26:50.127Z,10.66
2018-05-01T02:26:54.118Z,10.67
2018-05-01T02:26:58.324Z,10.66
2018-05-01T02:27:02.538Z,10.66
2018-05-01T02:27:06.633Z,10.66
2018-05-01T02:27:10.843Z,10.66
2018-05-01T02:27:15.161Z,10.66
2018-05-01T02:27:19.269Z,10.66
2018-05-01T02:27:23.262Z,10.66
2018-05-01T02:27:27.263Z,10.66
2018-05-01T02:27:31.587Z,10.67
2018-05-01T02:27:35.798Z,10.66
2018-05-01T02:27:39.900Z,10.66
2018-05-01T02:27:44.106Z,10.67
2018-05-01T02:27:48.319Z,10.66
2018-05-01T02:27:52.636Z,10.65
2018-05-01T02:27:56.851Z,10.66
2018-05-01T02:28:01.066Z,10.66
2018-05-01T02:28:05.425Z,10.66
2018-05-01T02:28:09.536Z,10.66
2018-05-01T02:28:13.741Z,10.66
2018-05-01T02:28:17.958Z,10.67
2018-05-01T02:28:22.057Z,10.66
2018-05-01T02:28:26.266Z,10.67
2018-05-01T02:28:30.590Z,10.67
2018-05-01T02:28:34.692Z,10.67
2018-05-01T02:28:39.016Z,10.68
2018-05-01T02:28:43.224Z,10.67
2018-05-01T02:28:47.540Z,10.68
2018-05-01T02:28:51.755Z,10.68
2018-05-01T02:28:55.964Z,10.68
2018-05-01T02:29:00.169Z,10.67
2018-05-01T02:29:04.171Z,10.67
2018-05-01T02:29:08.276Z,10.67
2018-05-01T02:29:12.491Z,10.68
2018-05-01T02:29:16.709Z,10.68
2018-05-01T02:29:20.712Z,10.68
2018-05-01T02:29:24.920Z,10.68
2018-05-01T02:29:29.132Z,10.68
2018-05-01T02:29:33.344Z,10.69
2018-05-01T02:29:37.339Z,10.67
2018-05-01T02:29:41.556Z,10.68
2018-05-01T02:29:45.847Z,10.68
2018-05-01T02:29:49.950Z,10.68
2018-05-01T02:29:54.265Z,10.68
2018-05-01T02:29:58.264Z,10.69
2018-05-01T02:30:02.370Z,10.68
2018-05-01T02:30:06.485Z,10.68
2018-05-01T02:30:10.707Z,10.69
2018-05-01T02:30:14.925Z,10.69
2018-05-01T02:30:19.154Z,10.69
2018-05-01T02:30:23.482Z,10.68
2018-05-01T02:30:27.701Z,10.69
2018-05-01T02:30:31.927Z,10.7
2018-05-01T02:30:36.243Z,10.69
2018-05-01T02:30:40.465Z,10.69
2018-05-01T02:30:44.564Z,10.68
2018-05-01T02:30:48.883Z,10.7
2018-05-01T02:30:52.885Z,10.69
2018-05-01T02:30:57.120Z,10.69
2018-05-01T02:31:01.468Z,10.69
2018-05-01T02:31:05.381Z,10.71
2018-05-01T02:31:09.608Z,10.69
2018-05-01T02:31:13.930Z,10.7
2018-05-01T02:31:18.368Z,10.7
2018-05-01T02:31:22.705Z,10.7
2018-05-01T02:31:26.920Z,10.7
2018-05-01T02:31:30.918Z,10.71
2018-05-01T02:31:35.145Z,10.7
2018-05-01T02:31:39.478Z,10.7
2018-05-01T02:31:43.802Z,10.71
2018-05-01T02:31:48.125Z,10.7
2018-05-01T02:31:52.440Z,10.71
2018-05-01T02:31:56.777Z,10.71
2018-05-01T02:32:01.016Z,10.71
2018-05-01T02:32:05.280Z,10.71
2018-05-01T02:32:09.504Z,10.71
2018-05-01T02:32:13.837Z,10.72
2018-05-01T02:32:18.157Z,10.71
2018-05-01T02:32:22.477Z,10.72
2018-05-01T02:32:26.800Z,10.71
2018-05-01T02:32:31.013Z,10.72
2018-05-01T02:32:35.337Z,10.72
2018-05-01T02:32:39.575Z,10.73
2018-05-01T02:32:43.800Z,10.72
2018-05-01T02:32:48.119Z,10.72
2018-05-01T02:32:52.439Z,10.72
2018-05-01T02:32:56.646Z,10.73
2018-05-01T02:33:00.855Z,10.73
2018-05-01T02:33:04.978Z,10.74
2018-05-01T02:33:09.078Z,10.73
2018-05-01T02:33:13.414Z,10.74
2018-05-01T02:33:17.740Z,10.73
2018-05-01T02:33:22.059Z,10.73
2018-05-01T02:33:26.272Z,10.73
2018-05-01T02:33:30.483Z,10.73
2018-05-01T02:33:34.801Z,10.74
2018-05-01T02:33:39.126Z,10.74
2018-05-01T02:33:43.454Z,10.74
2018-05-01T02:33:47.783Z,10.75
2018-05-01T02:33:52.014Z,10.74
2018-05-01T02:33:56.331Z,10.74
2018-05-01T02:34:00.565Z,10.75
2018-05-01T02:34:04.816Z,10.75
2018-05-01T02:34:09.148Z,10.75
2018-05-01T02:34:13.487Z,10.75
2018-05-01T02:34:17.813Z,10.76
2018-05-01T02:34:22.139Z,10.75
2018-05-01T02:34:26.465Z,10.76
2018-05-01T02:34:30.566Z,10.76
2018-05-01T02:34:34.783Z,10.76
2018-05-01T02:34:39.109Z,10.77
2018-05-01T02:34:43.428Z,10.76
2018-05-01T02:34:47.758Z,10.77
2018-05-01T02:34:52.081Z,10.77
2018-05-01T02:34:56.503Z,10.77
2018-05-01T02:35:00.712Z,10.76
2018-05-01T02:35:04.828Z,10.77
2018-05-01T02:35:09.043Z,10.77
2018-05-01T02:35:13.362Z,10.77
2018-05-01T02:35:17.583Z,10.78
2018-05-01T02:35:21.693Z,10.77
2018-05-01T02:35:25.882Z,10.78
2018-05-01T02:35:30.205Z,10.77
2018-05-01T02:35:34.428Z,10.78
2018-05-01T02:35:38.746Z,10.77
2018-05-01T02:35:43.165Z,10.78
2018-05-01T02:35:47.391Z,10.77
2018-05-01T02:35:51.723Z,10.79
2018-05-01T02:35:56.044Z,10.78
2018-05-01T02:36:00.344Z,10.78
2018-05-01T02:36:04.573Z,10.79
2018-05-01T02:36:08.802Z,10.79
2018-05-01T02:36:13.125Z,10.79
2018-05-01T02:36:17.456Z,10.79
2018-05-01T02:36:21.784Z,10.79
2018-05-01T02:36:26.007Z,10.8
2018-05-01T02:36:30.325Z,10.79
2018-05-01T02:36:34.549Z,10.8
2018-05-01T02:36:38.769Z,10.8
2018-05-01T02:36:43.117Z,10.81
2018-05-01T02:36:47.438Z,10.8
2018-05-01T02:36:51.817Z,10.8
2018-05-01T02:36:56.140Z,10.81
2018-05-01T02:37:00.374Z,10.8
2018-05-01T02:37:04.871Z,10.81
2018-05-01T02:37:09.085Z,10.82
2018-05-01T02:37:13.422Z,10.81
2018-05-01T02:37:17.743Z,10.82
2018-05-01T02:37:21.957Z,10.82
2018-05-01T02:37:26.299Z,10.82
2018-05-01T02:37:30.615Z,10.82
2018-05-01T02:37:34.944Z,10.83
2018-05-01T02:37:39.151Z,10.83
2018-05-01T02:37:43.261Z,10.83
2018-05-01T02:37:47.480Z,10.83
2018-05-01T02:37:51.585Z,10.83
2018-05-01T02:37:55.911Z,10.84
2018-05-01T02:38:00.122Z,10.84
2018-05-01T02:38:04.445Z,10.84
2018-05-01T02:38:08.677Z,10.84
2018-05-01T02:38:13.000Z,10.84
2018-05-01T02:38:17.238Z,10.85
2018-05-01T02:38:21.471Z,10.84
2018-05-01T02:38:25.683Z,10.85
2018-05-01T02:38:29.906Z,10.85
2018-05-01T02:38:34.121Z,10.84
2018-05-01T02:38:38.333Z,10.85
2018-05-01T02:38:42.659Z,10.86
2018-05-01T02:38:47.026Z,10.85
2018-05-01T02:38:51.345Z,10.86
2018-05-01T02:38:55.566Z,10.85
2018-05-01T02:38:59.899Z,10.86
2018-05-01T02:39:04.113Z,10.86
2018-05-01T02:39:08.443Z,10.86
2018-05-01T02:39:12.446Z,10.87
2018-05-01T02:39:16.691Z,10.87
2018-05-01T02:39:21.014Z,10.87
2018-05-01T02:39:25.329Z,10.88
2018-05-01T02:39:29.570Z,10.87
2018-05-01T02:39:33.778Z,10.88
2018-05-01T02:39:38.202Z,10.87
2018-05-01T02:39:42.525Z,10.88
2018-05-01T02:39:46.853Z,10.88
2018-05-01T02:39:51.183Z,10.89
2018-05-01T02:39:55.610Z,10.88
2018-05-01T02:39:59.822Z,10.88
2018-05-01T02:40:04.049Z,10.89
2018-05-01T02:40:08.157Z,10.89
2018-05-01T02:40:12.371Z,10.89
2018-05-01T02:40:16.595Z,10.89
2018-05-01T02:40:20.913Z,10.89
2018-05-01T02:40:25.118Z,10.9
2018-05-01T02:40:29.327Z,10.89
2018-05-01T02:40:33.649Z,10.9
2018-05-01T02:40:37.977Z,10.9
2018-05-01T02:40:42.301Z,10.9
2018-05-01T02:40:46.615Z,10.9
2018-05-01T02:40:50.936Z,10.9
2018-05-01T02:40:55.149Z,10.91
2018-05-01T02:40:59.482Z,10.91
2018-05-01T02:41:03.704Z,10.92
2018-05-01T02:41:08.104Z,10.91
2018-05-01T02:41:12.794Z,10.92
2018-05-01T02:41:17.115Z,10.92
2018-05-01T02:41:22.395Z,10.92
2018-05-01T02:41:26.511Z,10.92
2018-05-01T02:41:30.618Z,10.92
2018-05-01T02:41:34.821Z,10.92
2018-05-01T02:41:38.935Z,10.92
2018-05-01T02:41:43.149Z,10.92
2018-05-01T02:41:47.374Z,10.92
2018-05-01T02:41:51.697Z,10.93
2018-05-01T02:41:56.018Z,10.92
2018-05-01T02:42:00.345Z,10.93
2018-05-01T02:42:04.564Z,10.94
2018-05-01T02:42:08.784Z,10.94
2018-05-01T02:42:13.000Z,10.94
2018-05-01T02:42:17.327Z,10.94
2018-05-01T02:42:21.542Z,10.94
2018-05-01T02:42:25.760Z,10.95
2018-05-01T02:42:29.976Z,10.94
2018-05-01T02:42:34.303Z,10.95
2018-05-01T02:42:38.516Z,10.95
2018-05-01T02:42:42.725Z,10.94
2018-05-01T02:42:47.052Z,10.95
2018-05-01T02:42:51.280Z,10.96
2018-05-01T02:42:55.494Z,10.96
2018-05-01T02:42:59.809Z,10.96
2018-05-01T02:43:04.031Z,10.96
2018-05-01T02:43:08.366Z,10.96
2018-05-01T02:43:12.581Z,10.95
2018-05-01T02:43:16.805Z,10.96
2018-05-01T02:43:20.912Z,10.97
2018-05-01T02:43:25.117Z,10.96
2018-05-01T02:43:29.115Z,10.96
2018-05-01T02:43:33.449Z,10.97
2018-05-01T02:43:37.669Z,10.96
2018-05-01T02:43:41.897Z,10.97
2018-05-01T02:43:46.192Z,10.97
2018-05-01T02:43:50.519Z,10.97
2018-05-01T02:43:54.732Z,10.97
2018-05-01T02:43:59.056Z,10.98
2018-05-01T02:44:03.162Z,10.98
2018-05-01T02:44:07.501Z,10.98
2018-05-01T02:44:11.825Z,10.98
2018-05-01T02:44:15.922Z,10.98
2018-05-01T02:44:20.249Z,10.98
2018-05-01T02:44:24.575Z,10.99
2018-05-01T02:44:28.786Z,10.98
2018-05-01T02:44:33.115Z,10.99
2018-05-01T02:44:37.342Z,10.99
2018-05-01T02:44:41.552Z,10.99
2018-05-01T02:44:45.793Z,10.99
2018-05-01T02:44:50.010Z,11
2018-05-01T02:44:54.370Z,11
2018-05-01T02:44:58.582Z,10.99
2018-05-01T02:45:02.943Z,11
2018-05-01T02:45:07.287Z,11
2018-05-01T02:45:11.605Z,11
2018-05-01T02:45:15.712Z,11
2018-05-01T02:45:20.050Z,11
2018-05-01T02:45:24.270Z,11
2018-05-01T02:45:28.596Z,11
2018-05-01T02:45:32.821Z,11.01
2018-05-01T02:45:36.931Z,11
2018-05-01T02:45:41.151Z,11.01
2018-05-01T02:45:45.360Z,11.01
2018-05-01T02:45:49.588Z,11.01
2018-05-01T02:45:53.902Z,11.01
2018-05-01T02:45:58.122Z,11.01
2018-05-01T02:46:02.349Z,11.02
2018-05-01T02:46:06.696Z,11.02
2018-05-01T02:46:10.905Z,11.02
2018-05-01T02:46:15.232Z,11.01
2018-05-01T02:46:19.333Z,11.02
2018-05-01T02:46:23.653Z,11.02
2018-05-01T02:46:27.877Z,11.02
2018-05-01T02:46:32.219Z,11.03
2018-05-01T02:46:36.546Z,11.03
2018-05-01T02:46:40.872Z,11.03
2018-05-01T02:46:45.203Z,11.04
2018-05-01T02:46:49.307Z,11.03
2018-05-01T02:46:53.633Z,11.02
2018-05-01T02:46:57.856Z,11.03
2018-05-01T02:47:02.199Z,11.03
2018-05-01T02:47:06.352Z,11.04
2018-05-01T02:47:10.575Z,11.04
2018-05-01T02:47:14.905Z,11.04
2018-05-01T02:47:19.121Z,11.04
2018-05-01T02:47:23.439Z,11.04
2018-05-01T02:47:27.661Z,11.04
2018-05-01T02:47:31.983Z,11.04
2018-05-01T02:47:36.329Z,11.04
2018-05-01T02:47:40.661Z,11.04
2018-05-01T02:47:44.984Z,11.04
2018-05-01T02:47:49.104Z,11.04
2018-05-01T02:47:53.327Z,11.05
2018-05-01T02:47:57.328Z,11.04
2018-05-01T02:48:01.651Z,11.05
2018-05-01T02:48:05.992Z,11.05
2018-05-01T02:48:10.091Z,11.05
2018-05-01T02:48:14.412Z,11.04
2018-05-01T02:48:18.782Z,11.05
2018-05-01T02:48:22.949Z,11.05
2018-05-01T02:48:27.264Z,11.04
2018-05-01T02:48:31.599Z,11.05
2018-05-01T02:48:35.804Z,11.05
2018-05-01T02:48:40.137Z,11.05
2018-05-01T02:48:44.468Z,11.06
2018-05-01T02:48:48.783Z,11.05
2018-05-01T02:48:53.103Z,11.05
2018-05-01T02:48:57.427Z,11.05
2018-05-01T02:49:01.533Z,11.05
2018-05-01T02:49:05.641Z,11.05
2018-05-01T02:49:09.757Z,11.05
2018-05-01T02:49:14.078Z,11.05
2018-05-01T02:49:18.398Z,11.05
2018-05-01T02:49:22.507Z,11.05
2018-05-01T02:49:26.506Z,11.04
2018-05-01T02:49:30.862Z,11.04
2018-05-01T02:49:35.182Z,11.04
2018-05-01T02:49:39.504Z,11.05
2018-05-01T02:49:43.882Z,11.05
2018-05-01T02:49:48.227Z,11.04
2018-05-01T02:49:52.568Z,11.05
2018-05-01T02:49:56.902Z,11.04
2018-05-01T02:50:01.130Z,11.04
2018-05-01T02:50:05.457Z,11.05
2018-05-01T02:50:09.668Z,11.04
2018-05-01T02:50:14.085Z,11.05
2018-05-01T02:50:18.407Z,11.04
2018-05-01T02:50:22.619Z,11.05
2018-05-01T02:50:26.963Z,11.04
2018-05-01T02:50:31.082Z,11.05
2018-05-01T02:50:35.192Z,11.05
2018-05-01T02:50:39.543Z,11.04
2018-05-01T02:50:43.793Z,11.05
2018-05-01T02:50:48.121Z,11.05
2018-05-01T02:50:52.452Z,11.05
2018-05-01T02:50:56.669Z,11.05
2018-05-01T02:51:00.996Z,11.05
2018-05-01T02:51:05.109Z,11.05
2018-05-01T02:51:09.341Z,11.05
2018-05-01T02:51:13.464Z,11.04
2018-05-01T02:51:17.787Z,11.05
2018-05-01T02:51:21.995Z,11.05
2018-05-01T02:51:26.335Z,11.04
2018-05-01T02:51:30.435Z,11.05
2018-05-01T02:51:34.760Z,11.05
2018-05-01T02:51:39.085Z,11.05
2018-05-01T02:51:43.307Z,11.05
2018-05-01T02:51:47.627Z,11.05
2018-05-01T02:51:51.945Z,11.05
2018-05-01T02:51:56.268Z,11.05
2018-05-01T02:52:00.595Z,11.05
2018-05-01T02:52:04.854Z,11.05
2018-05-01T02:52:08.855Z,11.04
2018-05-01T02:52:13.205Z,11.05
2018-05-01T02:52:17.348Z,11.05
2018-05-01T02:52:21.570Z,11.04
2018-05-01T02:52:25.571Z,11.04
2018-05-01T02:52:29.920Z,11.04
2018-05-01T02:52:34.283Z,11.04
2018-05-01T02:52:38.615Z,11.05
2018-05-01T02:52:42.737Z,11.05
2018-05-01T02:52:47.071Z,11.04
2018-05-01T02:52:51.172Z,11.05
2018-05-01T02:52:55.403Z,11.05
2018-05-01T02:52:59.625Z,11.04
2018-05-01T02:53:03.636Z,11.05
2018-05-01T02:53:07.747Z,11.04
2018-05-01T02:53:11.961Z,11.04
2018-05-01T02:53:16.287Z,11.04
2018-05-01T02:53:20.607Z,11.05
2018-05-01T02:53:24.923Z,11.04
2018-05-01T02:53:29.293Z,11.04
2018-05-01T02:53:33.510Z,11.04
2018-05-01T02:53:37.722Z,11.04
2018-05-01T02:53:42.057Z,11.04
2018-05-01T02:53:46.378Z,11.04
2018-05-01T02:53:50.710Z,11.04
2018-05-01T02:53:55.028Z,11.04
2018-05-01T02:53:59.347Z,11.03
2018-05-01T02:54:03.235Z,11.05
2018-05-01T02:54:07.444Z,11.04
2018-05-01T02:54:11.663Z,11.04
2018-05-01T02:54:15.986Z,11.04
2018-05-01T02:54:20.201Z,11.04
2018-05-01T02:54:24.316Z,11.05
2018-05-01T02:54:28.420Z,11.04
2018-05-01T02:54:32.761Z,11.04
2018-05-01T02:54:36.972Z,11.03
2018-05-01T02:54:41.289Z,11.03
2018-05-01T02:54:45.517Z,11.04
2018-05-01T02:54:49.840Z,11.03
2018-05-01T02:54:54.167Z,11.03